createdAt,value
2022-08-17T00:00:43.402Z,23.90
2022-08-17T00:03:10.084Z,23.90
2022-08-17T00:05:43.612Z,23.80
2022-08-17T00:08:12.152Z,23.80
2022-08-17T00:10:40.878Z,23.80
2022-08-17T00:13:16.243Z,23.70
2022-08-17T00:15:44.837Z,23.70
2022-08-17T00:19:02.099Z,23.70
2022-08-17T00:21:04.787Z,23.70
2022-08-17T00:23:39.459Z,23.70
2022-08-17T00:26:15.573Z,23.70
2022-08-17T00:29:03.489Z,23.60
2022-08-17T00:31:31.890Z,23.60
2022-08-17T00:34:00.222Z,23.60
2022-08-17T00:36:30.034Z,23.50
2022-08-17T00:38:58.169Z,23.50
2022-08-17T00:41:28.816Z,23.50
2022-08-17T00:44:02.076Z,23.40
2022-08-17T00:46:32.653Z,23.40
2022-08-17T00:49:01.306Z,23.40
2022-08-17T00:51:34.582Z,23.40
2022-08-17T00:54:08.040Z,23.30
2022-08-17T00:56:41.075Z,23.30
2022-08-17T00:59:11.069Z,23.30
2022-08-17T01:01:40.109Z,23.30
2022-08-17T01:04:09.776Z,23.30
2022-08-17T01:06:39.560Z,23.30
2022-08-17T01:09:08.685Z,23.20
2022-08-17T01:11:37.944Z,23.20
2022-08-17T01:14:06.065Z,23.20
2022-08-17T01:16:34.528Z,23.20
2022-08-17T01:19:06.272Z,23.20
2022-08-17T01:21:37.254Z,23.20
2022-08-17T01:24:07.691Z,23.20
2022-08-17T01:26:37.077Z,23.20
2022-08-17T01:29:12.709Z,23.20
2022-08-17T01:31:45.528Z,23.10
2022-08-17T01:34:16.483Z,23.10
2022-08-17T01:36:47.037Z,23.10
2022-08-17T01:39:22.532Z,23.10
2022-08-17T01:41:53.075Z,23.10
2022-08-17T01:44:23.099Z,23.10
2022-08-17T01:46:53.899Z,23.00
2022-08-17T01:49:22.628Z,23.00
2022-08-17T01:51:50.819Z,23.00
2022-08-17T01:54:22.542Z,23.00
2022-08-17T01:56:51.326Z,23.00
2022-08-17T01:59:20.781Z,23.00
2022-08-17T02:01:50.662Z,23.00
2022-08-17T02:04:18.869Z,22.90
2022-08-17T02:06:53.364Z,22.90
2022-08-17T02:09:29.639Z,22.90
2022-08-17T02:11:59.895Z,22.90
2022-08-17T02:14:48.131Z,22.80
2022-08-17T02:17:16.238Z,22.80
2022-08-17T02:19:44.401Z,22.80
2022-08-17T02:22:12.522Z,22.80
2022-08-17T02:24:59.567Z,22.70
2022-08-17T02:27:29.587Z,22.70
2022-08-17T02:29:57.785Z,22.70
2022-08-17T02:32:28.640Z,22.70
2022-08-17T02:34:57.478Z,22.70
2022-08-17T02:37:26.569Z,22.70
2022-08-17T02:39:58.376Z,22.70
2022-08-17T02:42:29.156Z,22.70
2022-08-17T02:44:57.329Z,22.60
2022-08-17T02:47:25.827Z,22.60
2022-08-17T02:49:55.751Z,22.60
2022-08-17T02:52:42.814Z,22.50
2022-08-17T02:55:16.163Z,22.50
2022-08-17T02:57:44.619Z,22.50
2022-08-17T03:00:15.619Z,22.50
2022-08-17T03:02:46.105Z,22.50
2022-08-17T03:05:17.465Z,22.50
2022-08-17T03:07:46.204Z,22.50
2022-08-17T03:10:16.426Z,22.40
2022-08-17T03:15:36.208Z,22.40
2022-08-17T03:18:08.761Z,22.40
2022-08-17T03:20:39.969Z,22.40
2022-08-17T03:23:08.355Z,22.40
2022-08-17T03:25:43.401Z,22.40
2022-08-17T03:28:12.961Z,22.40
2022-08-17T03:30:41.856Z,22.40
2022-08-17T03:33:11.169Z,22.30
2022-08-17T03:35:41.266Z,22.30
2022-08-17T03:38:10.320Z,22.30
2022-08-17T03:40:57.855Z,22.30
2022-08-17T03:43:30.481Z,22.30
2022-08-17T03:46:27.845Z,22.30
2022-08-17T03:49:19.963Z,22.30
2022-08-17T03:52:05.313Z,22.30
2022-08-17T03:54:50.838Z,22.20
2022-08-17T03:57:20.523Z,22.20
2022-08-17T03:59:48.744Z,22.20
2022-08-17T04:02:20.052Z,22.20
2022-08-17T04:04:50.788Z,22.10
2022-08-17T04:07:19.701Z,22.10
2022-08-17T04:09:48.195Z,22.10
2022-08-17T04:12:17.490Z,22.10
2022-08-17T04:14:53.123Z,22.10
2022-08-17T04:17:24.589Z,22.10
2022-08-17T04:19:53.433Z,22.00
2022-08-17T04:22:33.293Z,22.00
2022-08-17T04:25:08.922Z,22.00
2022-08-17T04:27:37.700Z,22.00
2022-08-17T04:30:08.551Z,22.00
2022-08-17T04:33:10.824Z,22.00
2022-08-17T04:35:41.192Z,22.00
2022-08-17T04:38:11.224Z,22.00
2022-08-17T04:40:56.775Z,22.00
2022-08-17T04:43:27.323Z,22.00
2022-08-17T04:45:58.778Z,22.00
2022-08-17T04:48:35.305Z,22.10
2022-08-17T04:51:10.356Z,22.00
2022-08-17T04:53:40.233Z,22.00
2022-08-17T04:56:11.691Z,22.00
2022-08-17T04:58:44.792Z,22.00
2022-08-17T05:01:14.847Z,22.00
2022-08-17T05:03:44.554Z,22.00
2022-08-17T05:06:12.761Z,22.00
2022-08-17T05:08:41.055Z,22.00
2022-08-17T05:11:09.385Z,22.00
2022-08-17T05:13:37.514Z,22.00
2022-08-17T05:16:06.456Z,22.00
2022-08-17T05:18:37.403Z,22.00
2022-08-17T05:21:06.816Z,22.10
2022-08-17T05:23:43.060Z,22.10
2022-08-17T05:26:25.516Z,22.10
2022-08-17T05:28:55.464Z,22.10
2022-08-17T05:31:26.483Z,22.20
2022-08-17T05:33:56.086Z,22.20
2022-08-17T05:36:42.154Z,22.30
2022-08-17T05:39:17.101Z,22.30
2022-08-17T05:41:47.904Z,22.40
2022-08-17T05:44:16.635Z,22.40
2022-08-17T05:46:50.078Z,22.50
2022-08-17T05:49:24.647Z,22.50
2022-08-17T05:52:13.432Z,22.60
2022-08-17T05:54:58.519Z,22.70
2022-08-17T05:57:43.520Z,22.70
2022-08-17T06:00:30.133Z,22.80
2022-08-17T06:03:34.259Z,22.90
2022-08-17T06:06:18.202Z,23.20
2022-08-17T06:08:52.475Z,23.50
2022-08-17T06:11:28.976Z,23.80
2022-08-17T06:14:19.508Z,24.10
2022-08-17T06:16:52.567Z,24.30
2022-08-17T06:19:28.126Z,24.50
2022-08-17T06:21:59.098Z,24.70
2022-08-17T06:24:34.230Z,24.90
2022-08-17T06:27:09.764Z,25.00
2022-08-17T06:29:45.983Z,25.10
2022-08-17T06:32:14.999Z,25.20
2022-08-17T06:34:44.732Z,25.30
2022-08-17T06:37:33.620Z,25.30
2022-08-17T06:40:20.135Z,25.40
2022-08-17T06:43:05.330Z,25.40
2022-08-17T06:45:38.691Z,25.50
2022-08-17T06:48:14.062Z,25.60
2022-08-17T06:50:48.716Z,25.70
2022-08-17T06:53:24.696Z,25.70
2022-08-17T06:55:59.876Z,25.80
2022-08-17T06:58:31.352Z,25.80
2022-08-17T07:01:03.938Z,25.90
2022-08-17T07:03:37.950Z,26.00
2022-08-17T07:06:12.327Z,26.10
2022-08-17T07:08:54.076Z,26.20
2022-08-17T07:11:28.095Z,26.30
2022-08-17T07:14:07.629Z,26.40
2022-08-17T07:16:41.118Z,26.50
2022-08-17T07:19:11.036Z,26.50
2022-08-17T07:21:54.973Z,26.60
2022-08-17T07:24:37.966Z,26.60
2022-08-17T07:27:09.403Z,26.70
2022-08-17T07:29:41.813Z,26.70
2022-08-17T07:32:12.278Z,26.80
2022-08-17T07:35:05.087Z,26.80
2022-08-17T07:37:34.314Z,26.90
2022-08-17T07:40:20.628Z,26.90
2022-08-17T07:43:23.071Z,26.90
2022-08-17T07:46:33.960Z,27.00
2022-08-17T07:49:18.792Z,27.00
2022-08-17T07:52:48.292Z,27.10
2022-08-17T07:54:48.843Z,27.10
2022-08-17T07:57:42.452Z,27.20
2022-08-17T08:00:23.874Z,27.20
2022-08-17T08:03:05.970Z,27.30
2022-08-17T08:05:50.536Z,27.30
2022-08-17T08:08:31.902Z,27.30
2022-08-17T08:11:04.171Z,27.30
2022-08-17T08:13:34.549Z,27.40
2022-08-17T08:16:26.040Z,27.40
2022-08-17T08:18:57.955Z,27.50
2022-08-17T08:21:36.759Z,27.50
2022-08-17T08:24:22.773Z,27.50
2022-08-17T08:26:58.069Z,27.50
2022-08-17T08:29:37.721Z,27.60
2022-08-17T08:32:16.402Z,27.60
2022-08-17T08:35:02.511Z,27.60
2022-08-17T08:37:42.963Z,27.60
2022-08-17T08:40:27.115Z,27.70
2022-08-17T08:43:06.291Z,27.70
2022-08-17T08:45:47.975Z,27.80
2022-08-17T08:48:58.136Z,27.80
2022-08-17T08:51:27.661Z,27.90
2022-08-17T08:54:04.603Z,28.00
2022-08-17T08:56:38.593Z,28.10
2022-08-17T08:59:18.806Z,28.10
2022-08-17T09:01:58.055Z,28.20
2022-08-17T09:05:12.973Z,28.20
2022-08-17T09:07:45.483Z,28.20
2022-08-17T09:10:24.659Z,28.20
2022-08-17T09:13:05.959Z,28.20
2022-08-17T09:15:43.613Z,28.20
2022-08-17T09:19:01.392Z,28.20
2022-08-17T09:21:18.257Z,28.20
2022-08-17T09:23:59.693Z,28.20
2022-08-17T09:26:32.440Z,28.20
2022-08-17T09:29:07.024Z,28.20
2022-08-17T09:31:48.785Z,28.20
2022-08-17T09:34:29.572Z,28.20
2022-08-17T09:37:08.683Z,28.20
2022-08-17T09:39:43.427Z,28.20
2022-08-17T09:42:18.555Z,28.20
2022-08-17T09:44:57.447Z,28.20
2022-08-17T09:47:31.775Z,28.20
2022-08-17T09:50:07.050Z,28.20
2022-08-17T09:52:36.372Z,28.20
2022-08-17T09:55:07.167Z,28.20
2022-08-17T09:57:54.076Z,28.20
2022-08-17T10:00:25.512Z,28.20
2022-08-17T10:03:09.590Z,28.20
2022-08-17T10:05:46.458Z,28.20
2022-08-17T10:08:25.591Z,28.20
2022-08-17T10:11:05.637Z,28.20
2022-08-17T10:13:41.289Z,28.10
2022-08-17T10:16:28.538Z,28.10
2022-08-17T10:19:11.457Z,28.10
2022-08-17T10:22:32.484Z,28.00
2022-08-17T10:25:22.349Z,28.00
2022-08-17T10:27:53.737Z,27.90
2022-08-17T10:30:24.691Z,27.90
2022-08-17T10:32:56.456Z,27.90
2022-08-17T10:35:33.891Z,27.80
2022-08-17T10:38:24.598Z,27.80
2022-08-17T10:40:58.429Z,27.70
2022-08-17T10:43:44.708Z,27.70
2022-08-17T10:47:02.279Z,27.60
2022-08-17T10:49:33.903Z,27.60
2022-08-17T10:52:05.368Z,27.60
2022-08-17T10:55:10.677Z,27.50
2022-08-17T10:57:45.379Z,27.50
2022-08-17T11:00:36.193Z,27.50
2022-08-17T11:03:17.455Z,27.50
2022-08-17T11:05:55.902Z,27.50
2022-08-17T11:08:41.690Z,27.50
2022-08-17T11:11:35.983Z,27.60
2022-08-17T11:14:20.478Z,27.60
2022-08-17T11:17:01.986Z,27.70
2022-08-17T11:20:07.386Z,27.70
2022-08-17T11:23:20.761Z,27.80
2022-08-17T11:25:53.302Z,27.80
2022-08-17T11:28:25.887Z,27.90
2022-08-17T11:30:57.358Z,28.00
2022-08-17T11:33:44.674Z,28.10
2022-08-17T11:36:21.814Z,28.10
2022-08-17T11:38:57.973Z,28.20
2022-08-17T11:41:34.923Z,28.30
2022-08-17T11:44:39.536Z,28.40
2022-08-17T11:47:33.330Z,28.50
2022-08-17T11:50:40.834Z,28.60
2022-08-17T11:53:47.347Z,28.70
2022-08-17T11:56:32.100Z,28.80
2022-08-17T11:59:01.625Z,28.90
2022-08-17T12:01:57.042Z,28.90
2022-08-17T12:04:29.318Z,29.00
2022-08-17T12:07:01.371Z,29.10
2022-08-17T12:09:33.146Z,29.10
2022-08-17T12:12:12.432Z,29.20
2022-08-17T12:17:40.532Z,29.20
2022-08-17T12:20:15.095Z,29.30
2022-08-17T12:22:54.929Z,29.30
2022-08-17T12:25:33.163Z,29.30
2022-08-17T12:28:05.245Z,29.40
2022-08-17T12:30:36.209Z,29.40
2022-08-17T12:33:12.754Z,29.40
2022-08-17T12:35:41.136Z,29.50
2022-08-17T12:38:26.854Z,29.60
2022-08-17T12:40:59.814Z,29.60
2022-08-17T12:43:32.791Z,29.70
2022-08-17T12:46:13.315Z,29.70
2022-08-17T12:48:55.003Z,29.80
2022-08-17T12:51:29.076Z,29.80
2022-08-17T12:53:57.946Z,29.90
2022-08-17T12:56:26.176Z,29.90
2022-08-17T12:58:56.706Z,29.90
2022-08-17T13:01:25.332Z,29.90
2022-08-17T13:03:59.824Z,29.90
2022-08-17T13:06:32.139Z,29.90
2022-08-17T13:09:11.589Z,29.90
2022-08-17T13:11:48.883Z,30.00
2022-08-17T13:14:19.017Z,30.00
2022-08-17T13:16:54.159Z,30.00
2022-08-17T13:19:40.372Z,30.00
2022-08-17T13:22:15.563Z,30.10
2022-08-17T13:24:56.108Z,30.10
2022-08-17T13:27:27.042Z,30.10
2022-08-17T13:29:58.193Z,30.20
2022-08-17T13:32:39.926Z,30.20
2022-08-17T13:35:40.084Z,30.30
2022-08-17T13:38:11.431Z,30.30
2022-08-17T13:40:46.206Z,30.40
2022-08-17T13:43:44.652Z,30.40
2022-08-17T13:46:19.978Z,30.40
2022-08-17T13:48:58.331Z,30.40
2022-08-17T13:51:34.274Z,30.40
2022-08-17T13:54:24.353Z,30.40
2022-08-17T13:57:01.591Z,30.40
2022-08-17T13:59:53.020Z,30.40
2022-08-17T14:02:25.941Z,30.30
2022-08-17T14:04:58.532Z,30.30
2022-08-17T14:07:34.931Z,30.30
2022-08-17T14:10:08.403Z,30.30
2022-08-17T14:12:39.228Z,30.30
2022-08-17T14:15:08.809Z,30.30
2022-08-17T14:17:39.068Z,30.30
2022-08-17T14:20:10.467Z,30.30
2022-08-17T14:22:40.404Z,30.40
2022-08-17T14:25:11.949Z,30.40
2022-08-17T14:27:52.290Z,30.40
2022-08-17T14:30:23.567Z,30.40
2022-08-17T14:32:52.970Z,30.30
2022-08-17T14:35:23.902Z,30.30
2022-08-17T14:37:54.334Z,30.30
2022-08-17T14:40:24.552Z,30.30
2022-08-17T14:42:54.184Z,30.30
2022-08-17T14:45:29.592Z,30.30
2022-08-17T14:48:01.076Z,30.30
2022-08-17T14:50:29.248Z,30.30
2022-08-17T14:52:59.166Z,30.30
2022-08-17T14:55:29.779Z,30.30
2022-08-17T14:57:59.064Z,30.30
2022-08-17T15:00:28.606Z,30.30
2022-08-17T15:03:00.023Z,30.30
2022-08-17T15:05:31.974Z,30.40
2022-08-17T15:08:06.286Z,30.40
2022-08-17T15:10:34.950Z,30.40
2022-08-17T15:13:04.775Z,30.40
2022-08-17T15:15:33.056Z,30.50
2022-08-17T15:18:02.424Z,30.50
2022-08-17T15:20:31.156Z,30.50
2022-08-17T15:23:00.902Z,30.50
2022-08-17T15:25:31.849Z,30.50
2022-08-17T15:28:01.202Z,30.50
2022-08-17T15:30:30.306Z,30.50
2022-08-17T15:32:59.650Z,30.40
2022-08-17T15:35:32.400Z,30.50
2022-08-17T15:38:10.186Z,30.40
2022-08-17T15:40:43.770Z,30.40
2022-08-17T15:43:15.448Z,30.40
2022-08-17T15:45:43.553Z,30.50
2022-08-17T15:48:14.269Z,30.50
2022-08-17T15:50:42.851Z,30.50
2022-08-17T15:53:12.496Z,30.50
2022-08-17T15:55:43.147Z,30.50
2022-08-17T15:58:11.229Z,30.50
2022-08-17T16:00:49.375Z,30.40
2022-08-17T16:03:57.402Z,30.40
2022-08-17T16:06:17.083Z,30.30
2022-08-17T16:08:46.724Z,30.30
2022-08-17T16:11:16.541Z,30.30
2022-08-17T16:13:54.503Z,30.30
2022-08-17T16:16:23.631Z,30.20
2022-08-17T16:18:53.719Z,30.20
2022-08-17T16:21:29.490Z,30.20
2022-08-17T16:24:03.706Z,30.20
2022-08-17T16:26:33.827Z,30.20
2022-08-17T16:29:05.050Z,30.10
2022-08-17T16:31:34.060Z,30.10
2022-08-17T16:34:15.707Z,30.10
2022-08-17T16:36:54.675Z,30.00
2022-08-17T16:39:26.604Z,30.00
2022-08-17T16:41:55.845Z,30.00
2022-08-17T16:44:25.613Z,30.00
2022-08-17T16:46:53.781Z,30.00
2022-08-17T16:49:35.425Z,29.90
2022-08-17T16:52:06.022Z,29.90
2022-08-17T16:54:36.323Z,29.90
2022-08-17T16:57:05.568Z,29.90
2022-08-17T16:59:40.994Z,29.90
2022-08-17T17:02:14.833Z,29.80
2022-08-17T17:04:49.468Z,29.80
2022-08-17T17:07:51.891Z,29.80
2022-08-17T17:10:24.890Z,29.80
2022-08-17T17:12:59.729Z,29.70
2022-08-17T17:15:41.460Z,29.70
2022-08-17T17:18:14.779Z,29.70
2022-08-17T17:20:52.757Z,29.70
2022-08-17T17:23:35.726Z,29.70
2022-08-17T17:26:18.206Z,29.70
2022-08-17T17:28:57.351Z,29.70
2022-08-17T17:31:29.474Z,29.70
2022-08-17T17:34:00.510Z,29.70
2022-08-17T17:36:33.907Z,29.70
2022-08-17T17:39:06.573Z,29.70
2022-08-17T17:41:42.631Z,29.70
2022-08-17T17:44:17.855Z,29.60
2022-08-17T17:46:54.176Z,29.70
2022-08-17T17:49:22.422Z,29.60
2022-08-17T17:52:09.606Z,29.60
2022-08-17T17:54:52.355Z,29.60
2022-08-17T17:57:28.427Z,29.60
2022-08-17T18:00:04.847Z,29.60
2022-08-17T18:02:51.477Z,29.60
2022-08-17T18:05:44.625Z,29.50
2022-08-17T18:08:35.204Z,29.50
2022-08-17T18:11:24.011Z,29.40
2022-08-17T18:14:14.812Z,29.40
2022-08-17T18:16:43.808Z,29.40
2022-08-17T18:19:14.241Z,29.30
2022-08-17T18:21:44.738Z,29.30
2022-08-17T18:24:13.723Z,29.20
2022-08-17T18:26:49.010Z,29.20
2022-08-17T18:29:27.017Z,29.20
2022-08-17T18:32:22.671Z,29.10
2022-08-17T18:34:53.552Z,29.10
2022-08-17T18:37:37.317Z,29.10
2022-08-17T18:40:29.316Z,29.00
2022-08-17T18:43:05.623Z,29.00
2022-08-17T18:45:39.335Z,29.00
2022-08-17T18:48:19.044Z,29.00
2022-08-17T18:50:47.349Z,28.90
2022-08-17T18:53:35.000Z,28.80
2022-08-17T18:56:39.628Z,28.80
2022-08-17T18:59:18.339Z,28.80
2022-08-17T19:02:08.939Z,28.70
2022-08-17T19:04:55.725Z,28.70
2022-08-17T19:07:29.569Z,28.70
2022-08-17T19:10:07.765Z,28.60
2022-08-17T19:12:43.085Z,28.50
2022-08-17T19:15:14.952Z,28.50
2022-08-17T19:17:51.659Z,28.50
2022-08-17T19:20:23.850Z,28.40
2022-08-17T19:23:14.341Z,28.40
2022-08-17T19:25:48.790Z,28.30
2022-08-17T19:28:24.016Z,28.30
2022-08-17T19:30:57.261Z,28.20
2022-08-17T19:33:27.507Z,28.20
2022-08-17T19:36:05.781Z,28.10
2022-08-17T19:38:55.129Z,28.00
2022-08-17T19:41:28.177Z,27.90
2022-08-17T19:44:17.620Z,27.90
2022-08-17T19:47:00.905Z,27.80
2022-08-17T19:49:41.711Z,27.80
2022-08-17T19:52:37.524Z,27.80
2022-08-17T19:55:10.571Z,27.70
2022-08-17T19:57:50.094Z,27.70
2022-08-17T20:00:19.932Z,27.60
2022-08-17T20:02:55.616Z,27.60
2022-08-17T20:05:29.755Z,27.50
2022-08-17T20:08:05.834Z,27.40
2022-08-17T20:10:45.095Z,27.40
2022-08-17T20:13:33.489Z,27.30
2022-08-17T20:16:02.810Z,27.30
2022-08-17T20:18:37.715Z,27.20
2022-08-17T20:21:19.960Z,27.20
2022-08-17T20:23:54.349Z,27.10
2022-08-17T20:26:27.448Z,27.10
2022-08-17T20:29:36.900Z,27.00
2022-08-17T20:32:26.674Z,27.00
2022-08-17T20:35:22.471Z,26.90
2022-08-17T20:37:58.536Z,26.90
2022-08-17T20:40:30.630Z,26.80
2022-08-17T20:43:00.361Z,26.80
2022-08-17T20:46:07.853Z,26.70
2022-08-17T20:48:40.489Z,26.70
2022-08-17T20:51:29.806Z,26.60
2022-08-17T20:54:07.594Z,26.50
2022-08-17T20:56:51.114Z,26.50
2022-08-17T20:59:56.381Z,26.40
2022-08-17T21:02:27.111Z,26.30
2022-08-17T21:05:34.396Z,26.30
2022-08-17T21:08:14.627Z,26.20
2022-08-17T21:10:46.568Z,26.20
2022-08-17T21:13:34.990Z,26.10
2022-08-17T21:16:10.645Z,26.10
2022-08-17T21:18:49.863Z,26.00
2022-08-17T21:21:26.119Z,26.00
2022-08-17T21:24:10.269Z,25.90
2022-08-17T21:27:01.253Z,25.90
2022-08-17T21:29:34.282Z,25.80
2022-08-17T21:32:24.705Z,25.80
2022-08-17T21:35:22.980Z,25.70
2022-08-17T21:38:03.969Z,25.70
2022-08-17T21:40:34.718Z,25.70
2022-08-17T21:43:23.898Z,25.60
2022-08-17T21:45:59.670Z,25.60
2022-08-17T21:48:30.056Z,25.50
2022-08-17T21:51:12.183Z,25.50
2022-08-17T21:53:45.473Z,25.40
2022-08-17T21:56:21.596Z,25.40
2022-08-17T21:58:56.728Z,25.30
2022-08-17T22:01:29.417Z,25.30
2022-08-17T22:04:04.389Z,25.20
2022-08-17T22:06:38.038Z,25.20
2022-08-17T22:09:13.878Z,25.20
2022-08-17T22:11:54.691Z,25.10
2022-08-17T22:14:27.164Z,25.10
2022-08-17T22:17:17.462Z,25.10
2022-08-17T22:19:48.925Z,25.10
2022-08-17T22:22:28.210Z,25.10
2022-08-17T22:24:57.925Z,25.10
2022-08-17T22:27:49.159Z,25.00
2022-08-17T22:30:35.580Z,25.00
2022-08-17T22:33:31.322Z,25.00
2022-08-17T22:36:11.766Z,25.00
2022-08-17T22:38:40.673Z,25.00
2022-08-17T22:41:34.754Z,25.00
2022-08-17T22:44:20.881Z,25.00
2022-08-17T22:47:02.677Z,25.00
2022-08-17T22:49:32.583Z,25.00
2022-08-17T22:52:07.597Z,25.00
2022-08-17T22:54:52.946Z,25.00
2022-08-17T22:57:52.499Z,25.00
2022-08-17T23:00:34.672Z,25.00
2022-08-17T23:03:14.839Z,25.00
2022-08-17T23:05:47.760Z,25.00
2022-08-17T23:08:26.620Z,25.00
2022-08-17T23:10:54.759Z,25.00
2022-08-17T23:13:23.091Z,25.00
2022-08-17T23:15:56.958Z,25.00
2022-08-17T23:18:27.343Z,25.10
2022-08-17T23:20:55.664Z,25.10
2022-08-17T23:23:24.046Z,25.10
2022-08-17T23:25:52.150Z,25.10
2022-08-17T23:28:41.175Z,25.10
2022-08-17T23:31:09.810Z,25.10
2022-08-17T23:33:40.868Z,25.10
2022-08-17T23:36:15.279Z,25.20
2022-08-17T23:38:44.593Z,25.20
2022-08-17T23:41:16.478Z,25.20
2022-08-17T23:43:47.541Z,25.20
2022-08-17T23:46:16.215Z,25.20
2022-08-17T23:48:51.275Z,25.20
2022-08-17T23:51:22.580Z,25.20
2022-08-17T23:53:55.519Z,25.20
2022-08-17T23:56:25.986Z,25.20
2022-08-17T23:58:56.480Z,25.20
